createdAt,value
2017-11-09T00:00:52.412Z,99290.22
2017-11-09T00:03:24.546Z,99293.17
2017-11-09T00:06:25.702Z,99302.25
2017-11-09T00:08:57.768Z,99299.78
2017-11-09T00:11:29.044Z,99298.00
2017-11-09T00:14:00.646Z,99294.23
2017-11-09T00:16:34.338Z,99292.43
2017-11-09T00:19:05.928Z,99292.48
2017-11-09T00:21:36.820Z,99294.75
2017-11-09T00:24:10.372Z,99298.88
2017-11-09T00:26:42.626Z,99296.55
2017-11-09T00:29:14.920Z,99284.87
2017-11-09T00:31:45.927Z,99283.66
2017-11-09T00:34:18.683Z,99287.63
2017-11-09T00:36:49.866Z,99289.14
2017-11-09T00:39:23.361Z,99283.09
2017-11-09T00:41:54.152Z,99283.39
2017-11-09T00:44:25.025Z,99283.45
2017-11-09T00:46:55.960Z,99284.03
2017-11-09T00:49:27.913Z,99282.66
2017-11-09T00:51:59.237Z,99283.02
2017-11-09T00:54:30.341Z,99277.73
2017-11-09T00:57:01.800Z,99284.41
2017-11-09T00:59:33.390Z,99286.56
2017-11-09T01:02:04.083Z,99288.47
2017-11-09T01:04:34.797Z,99285.36
2017-11-09T01:07:05.892Z,99286.36
2017-11-09T01:09:37.193Z,99288.52
2017-11-09T01:12:10.757Z,99285.09
2017-11-09T01:14:42.194Z,99287.05
2017-11-09T01:17:12.756Z,99289.38
2017-11-09T01:19:44.073Z,99287.45
2017-11-09T01:22:15.397Z,99289.64
2017-11-09T01:24:46.300Z,99286.16
2017-11-09T01:27:17.283Z,99291.80
2017-11-09T01:29:48.373Z,99290.54
2017-11-09T01:32:19.212Z,99290.31
2017-11-09T01:34:49.937Z,99281.77
2017-11-09T01:37:21.059Z,99285.36
2017-11-09T01:39:52.835Z,99282.02
2017-11-09T01:42:23.997Z,99284.36
2017-11-09T01:44:54.681Z,99287.15
2017-11-09T01:47:25.377Z,99285.88
2017-11-09T01:49:56.403Z,99285.83
2017-11-09T01:52:27.028Z,99279.80
2017-11-09T01:54:57.689Z,99285.73
2017-11-09T01:57:28.769Z,99279.70
2017-11-09T01:59:59.318Z,99275.84
2017-11-09T02:02:29.858Z,99277.38
2017-11-09T02:05:00.974Z,99268.53
2017-11-09T02:07:31.644Z,99274.42
2017-11-09T02:10:03.722Z,99274.84
2017-11-09T02:12:34.825Z,99280.65
2017-11-09T02:15:06.121Z,99278.69
2017-11-09T02:17:37.010Z,99281.82
2017-11-09T02:20:08.799Z,99287.58
2017-11-09T02:22:39.992Z,99283.49
2017-11-09T02:25:11.330Z,99291.74
2017-11-09T02:27:43.586Z,99294.53
2017-11-09T02:30:14.276Z,99291.06
2017-11-09T02:32:45.340Z,99295.88
2017-11-09T02:35:16.116Z,99295.92
2017-11-09T02:37:46.753Z,99297.88
2017-11-09T02:40:17.348Z,99299.84
2017-11-09T02:42:48.037Z,99301.52
2017-11-09T02:45:19.215Z,99301.59
2017-11-09T02:47:50.767Z,99299.36
2017-11-09T02:50:21.380Z,99302.26
2017-11-09T02:52:52.305Z,99302.26
2017-11-09T02:55:23.328Z,99305.33
2017-11-09T02:57:55.175Z,99306.43
2017-11-09T03:00:27.471Z,99304.20
2017-11-09T03:02:58.538Z,99306.84
2017-11-09T03:05:29.598Z,99309.19
2017-11-09T03:08:01.434Z,99299.98
2017-11-09T03:10:46.913Z,99305.53
2017-11-09T03:13:18.722Z,99310.39
2017-11-09T03:15:51.662Z,99311.12
2017-11-09T03:18:23.123Z,99312.18
2017-11-09T03:20:53.977Z,99318.91
2017-11-09T03:23:24.650Z,99316.31
2017-11-09T03:25:55.697Z,99318.27
2017-11-09T03:28:26.341Z,99315.95
2017-11-09T03:30:57.293Z,99316.89
2017-11-09T03:33:28.268Z,99317.79
2017-11-09T03:35:59.054Z,99316.09
2017-11-09T03:38:29.697Z,99317.69
2017-11-09T03:41:00.394Z,99315.37
2017-11-09T03:43:31.154Z,99323.19
2017-11-09T03:46:02.079Z,99320.13
2017-11-09T03:48:33.783Z,99317.74
2017-11-09T03:51:04.502Z,99315.69
2017-11-09T03:53:36.275Z,99319.76
2017-11-09T03:56:07.153Z,99318.48
2017-11-09T03:58:38.291Z,99326.99
2017-11-09T04:01:09.008Z,99323.45
2017-11-09T04:03:39.605Z,99326.26
2017-11-09T04:06:10.754Z,99323.03
2017-11-09T04:08:41.331Z,99327.52
2017-11-09T04:11:12.292Z,99327.14
2017-11-09T04:13:43.412Z,99330.48
2017-11-09T04:16:15.548Z,99329.16
2017-11-09T04:18:46.150Z,99333.13
2017-11-09T04:21:17.552Z,99333.69
2017-11-09T04:23:49.237Z,99335.34
2017-11-09T04:26:20.496Z,99343.55
2017-11-09T04:28:51.721Z,99343.00
2017-11-09T04:31:22.585Z,99338.98
2017-11-09T04:33:53.580Z,99345.91
2017-11-09T04:36:24.337Z,99341.75
2017-11-09T04:38:55.939Z,99348.08
2017-11-09T04:41:26.999Z,99351.52
2017-11-09T04:43:58.492Z,99352.84
2017-11-09T04:46:29.173Z,99355.80
2017-11-09T04:49:02.428Z,99353.82
2017-11-09T04:51:33.726Z,99350.72
2017-11-09T04:54:06.971Z,99352.22
2017-11-09T04:56:40.961Z,99351.14
2017-11-09T04:59:13.168Z,99357.59
2017-11-09T05:01:46.345Z,99359.27
2017-11-09T05:04:18.634Z,99360.70
2017-11-09T05:06:49.199Z,99366.33
2017-11-09T05:09:20.089Z,99361.75
2017-11-09T05:11:51.647Z,99367.87
2017-11-09T05:14:22.250Z,99369.10
2017-11-09T05:16:56.048Z,99365.94
2017-11-09T05:19:30.537Z,99375.38
2017-11-09T05:22:04.383Z,99384.44
2017-11-09T05:24:40.390Z,99382.20
2017-11-09T05:27:18.358Z,99377.08
2017-11-09T05:29:51.702Z,99376.03
2017-11-09T05:32:22.807Z,99379.26
2017-11-09T05:34:53.438Z,99374.97
2017-11-09T05:37:24.204Z,99377.52
2017-11-09T05:39:54.839Z,99381.80
2017-11-09T05:42:26.462Z,99379.36
2017-11-09T05:44:57.443Z,99377.00
2017-11-09T05:47:28.740Z,99384.37
2017-11-09T05:49:59.583Z,99384.64
2017-11-09T05:52:30.128Z,99384.59
2017-11-09T05:55:01.380Z,99387.33
2017-11-09T05:57:32.147Z,99387.61
2017-11-09T06:00:03.231Z,99383.92
2017-11-09T06:02:34.284Z,99388.77
2017-11-09T06:05:06.526Z,99380.53
2017-11-09T06:07:38.986Z,99384.82
2017-11-09T06:10:11.356Z,99393.63
2017-11-09T06:12:42.148Z,99389.92
2017-11-09T06:15:22.201Z,99393.25
2017-11-09T06:17:59.736Z,99390.48
2017-11-09T06:20:34.612Z,99397.98
2017-11-09T06:23:05.577Z,99397.59
2017-11-09T06:25:36.298Z,99406.94
2017-11-09T06:28:07.294Z,99410.20
2017-11-09T06:30:38.264Z,99409.47
2017-11-09T06:33:09.857Z,99406.66
2017-11-09T06:35:41.087Z,99412.53
2017-11-09T06:38:11.785Z,99410.49
2017-11-09T06:40:42.451Z,99417.81
2017-11-09T06:43:13.634Z,99409.62
2017-11-09T06:45:44.645Z,99412.95
2017-11-09T06:48:15.431Z,99411.33
2017-11-09T06:50:46.082Z,99410.45
2017-11-09T06:53:16.841Z,99420.02
2017-11-09T06:55:47.564Z,99418.55
2017-11-09T06:58:18.555Z,99424.45
2017-11-09T07:00:49.322Z,99425.03
2017-11-09T07:03:20.002Z,99424.19
2017-11-09T07:05:51.631Z,99430.43
2017-11-09T07:08:22.423Z,99431.86
2017-11-09T07:10:53.089Z,99431.33
2017-11-09T07:13:23.973Z,99433.72
2017-11-09T07:15:54.766Z,99438.58
2017-11-09T07:18:25.595Z,99428.86
2017-11-09T07:20:56.207Z,99435.05
2017-11-09T07:23:26.943Z,99440.28
2017-11-09T07:25:57.727Z,99439.38
2017-11-09T07:28:28.452Z,99440.16
2017-11-09T07:30:59.354Z,99438.22
2017-11-09T07:33:30.258Z,99444.45
2017-11-09T07:36:01.502Z,99441.39
2017-11-09T07:38:32.232Z,99443.93
2017-11-09T07:41:03.295Z,99443.20
2017-11-09T07:43:33.974Z,99443.08
2017-11-09T07:46:04.739Z,99447.80
2017-11-09T07:48:37.166Z,99445.73
2017-11-09T07:51:07.783Z,99446.58
2017-11-09T07:53:41.633Z,99447.33
2017-11-09T07:56:12.729Z,99455.36
2017-11-09T07:58:44.558Z,99450.22
2017-11-09T08:01:15.679Z,99451.97
2017-11-09T08:03:46.447Z,99450.87
2017-11-09T08:06:17.183Z,99449.17
2017-11-09T08:08:49.733Z,99450.49
2017-11-09T08:11:21.167Z,99454.30
2017-11-09T08:13:54.304Z,99462.09
2017-11-09T08:16:25.375Z,99458.89
2017-11-09T08:18:56.298Z,99459.75
2017-11-09T08:21:27.825Z,99455.19
2017-11-09T08:24:03.269Z,99460.95
2017-11-09T08:26:40.980Z,99453.70
2017-11-09T08:29:23.100Z,99456.54
2017-11-09T08:32:05.691Z,99453.05
2017-11-09T08:34:36.331Z,99446.84
2017-11-09T08:37:07.685Z,99451.94
2017-11-09T08:39:39.859Z,99454.23
2017-11-09T08:42:11.640Z,99458.92
2017-11-09T08:44:43.978Z,99459.16
2017-11-09T08:47:16.842Z,99460.50
2017-11-09T08:49:49.291Z,99461.91
2017-11-09T08:52:21.536Z,99461.16
2017-11-09T08:54:52.715Z,99454.96
2017-11-09T08:57:23.712Z,99453.03
2017-11-09T08:59:54.543Z,99456.67
2017-11-09T09:02:26.247Z,99453.83
2017-11-09T09:04:57.559Z,99458.13
2017-11-09T09:07:28.589Z,99464.45
2017-11-09T09:09:59.529Z,99453.31
2017-11-09T09:12:31.994Z,99455.33
2017-11-09T09:15:03.852Z,99453.50
2017-11-09T09:17:35.462Z,99455.16
2017-11-09T09:20:06.993Z,99452.64
2017-11-09T09:22:39.590Z,99447.41
2017-11-09T09:25:11.725Z,99451.42
2017-11-09T09:27:43.070Z,99448.16
2017-11-09T09:30:14.283Z,99452.39
2017-11-09T09:32:54.229Z,99454.63
2017-11-09T09:35:34.961Z,99456.81
2017-11-09T09:38:19.201Z,99460.86
2017-11-09T09:40:50.927Z,99459.87
2017-11-09T09:43:28.605Z,99453.80
2017-11-09T09:46:02.745Z,99456.20
2017-11-09T09:48:39.027Z,99452.33
2017-11-09T09:51:17.933Z,99457.66
2017-11-09T09:53:49.420Z,99461.63
2017-11-09T09:56:20.470Z,99460.66
2017-11-09T09:59:09.945Z,99456.86
2017-11-09T10:01:41.474Z,99450.53
2017-11-09T10:07:09.947Z,99452.76
2017-11-09T10:09:42.277Z,99456.99
2017-11-09T10:12:13.452Z,99457.95
2017-11-09T10:14:45.721Z,99456.20
2017-11-09T10:17:16.591Z,99451.44
2017-11-09T10:19:47.616Z,99455.18
2017-11-09T10:22:20.496Z,99453.38
2017-11-09T10:24:51.719Z,99454.03
2017-11-09T10:27:22.838Z,99450.72
2017-11-09T10:29:55.109Z,99444.33
2017-11-09T10:32:37.865Z,99449.22
2017-11-09T10:35:08.767Z,99442.46
2017-11-09T10:37:40.088Z,99445.11
2017-11-09T10:40:11.525Z,99450.95
2017-11-09T10:42:42.424Z,99444.33
2017-11-09T10:45:15.579Z,99447.72
2017-11-09T10:47:46.838Z,99441.08
2017-11-09T10:50:17.597Z,99436.81
2017-11-09T10:52:49.069Z,99437.91
2017-11-09T10:55:20.512Z,99437.65
2017-11-09T10:57:52.102Z,99437.55
2017-11-09T11:00:26.956Z,99436.45
2017-11-09T11:02:58.817Z,99434.73
2017-11-09T11:05:30.025Z,99432.91
2017-11-09T11:08:03.647Z,99436.10
2017-11-09T11:10:38.940Z,99429.41
2017-11-09T11:13:10.057Z,99431.87
2017-11-09T11:15:40.942Z,99431.39
2017-11-09T11:18:13.787Z,99424.81
2017-11-09T11:20:45.059Z,99420.11
2017-11-09T11:23:16.020Z,99421.80
2017-11-09T11:25:47.437Z,99423.67
2017-11-09T11:28:19.141Z,99423.58
2017-11-09T11:30:51.301Z,99421.60
2017-11-09T11:33:22.575Z,99423.69
2017-11-09T11:35:55.100Z,99427.50
2017-11-09T11:38:26.813Z,99436.20
2017-11-09T11:40:58.996Z,99434.94
2017-11-09T11:43:30.220Z,99434.88
2017-11-09T11:46:04.438Z,99432.44
2017-11-09T11:48:36.634Z,99425.66
2017-11-09T11:51:08.756Z,99429.67
2017-11-09T11:53:40.634Z,99435.98
2017-11-09T11:56:12.274Z,99429.45
2017-11-09T11:58:45.104Z,99431.70
2017-11-09T12:01:17.452Z,99429.28
2017-11-09T12:03:53.553Z,99433.10
2017-11-09T12:06:25.987Z,99434.02
2017-11-09T12:08:57.656Z,99435.98
2017-11-09T12:11:28.881Z,99433.36
2017-11-09T12:14:00.413Z,99433.88
2017-11-09T12:16:32.421Z,99434.27
2017-11-09T12:19:03.742Z,99437.34
2017-11-09T12:21:37.801Z,99431.89
2017-11-09T12:24:09.671Z,99431.19
2017-11-09T12:26:49.888Z,99424.17
2017-11-09T12:29:25.697Z,99427.45
2017-11-09T12:31:57.415Z,99426.30
2017-11-09T12:34:29.873Z,99430.98
2017-11-09T12:37:01.578Z,99435.56
2017-11-09T12:39:38.223Z,99438.58
2017-11-09T12:42:12.403Z,99438.52
2017-11-09T12:44:45.075Z,99441.81
2017-11-09T12:47:16.264Z,99445.48
2017-11-09T12:49:47.894Z,99437.47
2017-11-09T12:52:20.648Z,99436.56
2017-11-09T12:54:52.100Z,99438.94
2017-11-09T12:57:24.149Z,99438.70
2017-11-09T12:59:55.717Z,99436.08
2017-11-09T13:02:27.206Z,99445.59
2017-11-09T13:04:58.110Z,99439.39
2017-11-09T13:07:31.169Z,99440.42
2017-11-09T13:10:02.307Z,99441.30
2017-11-09T13:12:35.672Z,99436.94
2017-11-09T13:15:09.143Z,99433.70
2017-11-09T13:17:40.251Z,99441.07
2017-11-09T13:20:14.188Z,99441.23
2017-11-09T13:22:46.378Z,99431.66
2017-11-09T13:25:18.770Z,99430.58
2017-11-09T13:27:49.776Z,99433.69
2017-11-09T13:30:21.157Z,99440.23
2017-11-09T13:32:52.226Z,99438.36
2017-11-09T13:35:25.262Z,99433.23
2017-11-09T13:37:56.444Z,99435.55
2017-11-09T13:40:28.876Z,99433.97
2017-11-09T13:43:06.056Z,99439.75
2017-11-09T13:45:41.587Z,99439.64
2017-11-09T13:48:13.547Z,99439.34
2017-11-09T13:50:45.848Z,99438.63
2017-11-09T13:53:17.203Z,99441.83
2017-11-09T13:55:48.004Z,99441.27
2017-11-09T13:58:19.574Z,99436.56
2017-11-09T14:00:50.667Z,99433.02
2017-11-09T14:03:23.471Z,99433.02
2017-11-09T14:05:54.889Z,99427.94
2017-11-09T14:08:26.115Z,99428.63
2017-11-09T14:10:57.096Z,99430.89
2017-11-09T14:13:29.953Z,99430.58
2017-11-09T14:16:01.249Z,99434.70
2017-11-09T14:18:36.062Z,99428.98
2017-11-09T14:21:08.250Z,99429.10
2017-11-09T14:23:43.792Z,99429.52
2017-11-09T14:26:14.805Z,99430.98
2017-11-09T14:28:52.465Z,99431.48
2017-11-09T14:31:24.873Z,99425.73
2017-11-09T14:33:56.287Z,99428.34
2017-11-09T14:36:27.828Z,99419.98
2017-11-09T14:39:00.190Z,99415.34
2017-11-09T14:41:31.614Z,99421.03
2017-11-09T14:44:03.841Z,99415.31
2017-11-09T14:46:36.952Z,99421.57
2017-11-09T14:49:09.893Z,99422.78
2017-11-09T14:51:42.207Z,99425.80
2017-11-09T14:54:18.013Z,99424.69
2017-11-09T14:56:53.870Z,99419.48
2017-11-09T14:59:26.361Z,99426.56
2017-11-09T15:01:59.006Z,99426.56
2017-11-09T15:04:33.110Z,99426.17
2017-11-09T15:07:06.752Z,99429.78
2017-11-09T15:09:52.308Z,99438.53
2017-11-09T15:12:24.441Z,99444.20
2017-11-09T15:14:59.955Z,99440.19
2017-11-09T15:17:34.487Z,99446.45
2017-11-09T15:20:12.028Z,99452.00
2017-11-09T15:22:44.356Z,99455.13
2017-11-09T15:25:17.989Z,99449.09
2017-11-09T15:27:51.050Z,99453.44
2017-11-09T15:30:28.761Z,99454.70
2017-11-09T15:33:02.185Z,99458.68
2017-11-09T15:35:37.196Z,99458.08
2017-11-09T15:38:11.733Z,99453.72
2017-11-09T15:40:45.747Z,99450.14
2017-11-09T15:43:19.692Z,99471.02
2017-11-09T15:45:52.398Z,99476.54
2017-11-09T15:48:23.940Z,99482.87
2017-11-09T15:53:44.549Z,99481.90
2017-11-09T15:56:20.391Z,99481.57
2017-11-09T15:58:57.932Z,99483.06
2017-11-09T16:01:32.077Z,99486.03
2017-11-09T16:04:06.159Z,99485.80
2017-11-09T16:06:48.232Z,99486.03
2017-11-09T16:09:24.368Z,99484.05
2017-11-09T16:11:58.547Z,99480.73
2017-11-09T16:14:31.403Z,99482.52
2017-11-09T16:17:05.717Z,99489.85
2017-11-09T16:19:43.589Z,99490.12
2017-11-09T16:22:15.124Z,99491.92
2017-11-09T16:24:46.608Z,99495.50
2017-11-09T16:27:24.039Z,99491.30
2017-11-09T16:30:00.146Z,99496.93
2017-11-09T16:32:32.957Z,99496.48
2017-11-09T16:35:06.304Z,99496.14
2017-11-09T16:37:38.927Z,99492.91
2017-11-09T16:42:53.653Z,99489.30
2017-11-09T16:48:14.050Z,99485.48
2017-11-09T17:06:36.017Z,99469.66
2017-11-09T17:09:28.109Z,99467.48
2017-11-09T17:12:04.501Z,99462.06
2017-11-09T17:14:40.495Z,99449.07
2017-11-09T17:17:13.105Z,99454.80
2017-11-09T17:19:44.992Z,99457.29
2017-11-09T17:22:31.252Z,99457.82
2017-11-09T17:25:07.166Z,99451.09
2017-11-09T17:27:48.690Z,99450.67
2017-11-09T17:30:24.759Z,99456.50
2017-11-09T17:32:58.462Z,99457.05
2017-11-09T17:35:31.416Z,99454.40
2017-11-09T17:38:07.416Z,99454.98
2017-11-09T17:40:43.064Z,99454.75
2017-11-09T17:46:02.500Z,99447.56
2017-11-09T17:48:44.975Z,99438.72
2017-11-09T17:51:24.766Z,99441.38
2017-11-09T17:53:58.830Z,99444.18
2017-11-09T17:56:35.946Z,99449.31
2017-11-09T18:01:55.522Z,99439.30
2017-11-09T18:04:28.535Z,99435.17
2017-11-09T18:06:59.955Z,99442.08
2017-11-09T18:09:31.916Z,99446.72
2017-11-09T18:12:05.942Z,99440.81
2017-11-09T18:14:44.992Z,99433.28
2017-11-09T18:17:22.528Z,99438.03
2017-11-09T18:20:10.408Z,99430.51
2017-11-09T18:22:47.088Z,99436.60
2017-11-09T18:25:31.987Z,99439.22
2017-11-09T18:30:49.036Z,99437.02
2017-11-09T18:33:22.378Z,99436.06
2017-11-09T18:35:56.830Z,99446.43
2017-11-09T18:38:28.584Z,99449.80
2017-11-09T18:41:07.035Z,99445.03
2017-11-09T18:43:39.449Z,99444.60
2017-11-09T18:46:11.775Z,99443.39
2017-11-09T18:48:43.932Z,99455.75
2017-11-09T18:51:16.912Z,99458.51
2017-11-09T18:53:48.721Z,99460.00
2017-11-09T18:56:23.359Z,99459.57
2017-11-09T18:59:14.759Z,99472.28
2017-11-09T19:07:46.761Z,99467.63
2017-11-09T19:10:44.417Z,99462.06
2017-11-09T19:13:18.296Z,99453.50
2017-11-09T19:15:52.596Z,99454.70
2017-11-09T19:18:24.057Z,99450.35
2017-11-09T19:20:57.186Z,99452.63
2017-11-09T19:23:31.241Z,99446.75
2017-11-09T19:26:05.944Z,99443.22
2017-11-09T19:28:42.049Z,99437.29
2017-11-09T19:31:13.869Z,99434.86
2017-11-09T19:33:44.844Z,99431.25
2017-11-09T19:36:20.930Z,99431.89
2017-11-09T19:38:59.134Z,99442.06
2017-11-09T19:41:31.936Z,99447.36
2017-11-09T19:44:06.160Z,99451.22
2017-11-09T19:46:37.457Z,99462.61
2017-11-09T19:49:12.293Z,99465.37
2017-11-09T19:51:48.152Z,99473.37
2017-11-09T19:54:23.656Z,99469.45
2017-11-09T19:56:56.519Z,99474.16
2017-11-09T19:59:33.167Z,99480.98
2017-11-09T20:02:08.138Z,99485.66
2017-11-09T20:04:42.347Z,99480.41
2017-11-09T20:07:15.975Z,99483.38
2017-11-09T20:09:52.802Z,99482.30
2017-11-09T20:12:31.966Z,99483.06
2017-11-09T20:20:58.647Z,99493.80
2017-11-09T20:23:37.288Z,99496.47
2017-11-09T20:30:23.899Z,99497.49
2017-11-09T20:41:57.874Z,99487.84
2017-11-09T20:44:35.959Z,99484.83
2017-11-09T20:47:07.048Z,99478.63
2017-11-09T20:51:15.331Z,99466.98
2017-11-09T20:53:46.463Z,99466.91
2017-11-09T20:56:19.762Z,99461.84
2017-11-09T20:58:50.865Z,99466.55
2017-11-09T21:01:23.889Z,99469.89
2017-11-09T21:03:56.268Z,99461.19
2017-11-09T21:06:31.731Z,99465.37
2017-11-09T21:09:06.295Z,99460.44
2017-11-09T21:11:38.462Z,99459.88
2017-11-09T21:14:11.926Z,99466.29
2017-11-09T21:16:44.775Z,99457.61
2017-11-09T21:19:18.326Z,99454.42
2017-11-09T21:21:53.285Z,99455.59
2017-11-09T21:24:28.188Z,99447.38
2017-11-09T21:27:10.313Z,99451.72
2017-11-09T21:29:46.557Z,99444.47
2017-11-09T21:32:22.027Z,99443.85
2017-11-09T21:34:54.961Z,99447.30
2017-11-09T21:37:26.929Z,99435.01
2017-11-09T21:39:59.519Z,99425.90
2017-11-09T21:42:36.789Z,99414.41
2017-11-09T21:45:13.493Z,99415.36
2017-11-09T21:47:47.852Z,99411.91
2017-11-09T21:50:20.045Z,99406.67
2017-11-09T21:52:54.871Z,99411.48
2017-11-09T21:55:26.541Z,99406.98
2017-11-09T21:58:10.471Z,99418.27
2017-11-09T22:00:43.318Z,99413.50
2017-11-09T22:03:20.670Z,99420.28
2017-11-09T22:05:56.849Z,99417.53
2017-11-09T22:08:35.342Z,99425.17
2017-11-09T22:11:07.168Z,99435.29
2017-11-09T22:13:46.028Z,99434.98
2017-11-09T22:16:20.080Z,99431.00
2017-11-09T22:19:03.773Z,99420.23
2017-11-09T22:21:35.423Z,99416.58
2017-11-09T22:24:08.114Z,99407.17
2017-11-09T22:26:40.028Z,99402.14
2017-11-09T22:29:19.056Z,99402.62
2017-11-09T22:31:54.550Z,99410.56
2017-11-09T22:34:28.367Z,99424.93
2017-11-09T22:37:01.500Z,99421.22
2017-11-09T22:40:05.156Z,99414.32
2017-11-09T22:52:14.709Z,99405.94
2017-11-09T22:54:45.606Z,99395.76
2017-11-09T22:57:16.586Z,99387.56
2017-11-09T22:59:47.137Z,99389.52
2017-11-09T23:02:21.955Z,99385.50
2017-11-09T23:04:54.006Z,99378.04
2017-11-09T23:07:24.960Z,99381.21
2017-11-09T23:10:43.112Z,99368.94
2017-11-09T23:36:34.482Z,99329.34
2017-11-09T23:43:48.266Z,99323.02
